createdAt,value
2022-08-09T00:00:04.911Z,58.25
2022-08-09T00:02:49.664Z,58.23
2022-08-09T00:06:19.116Z,58.04
2022-08-09T00:08:10.804Z,57.50
2022-08-09T00:10:39.523Z,58.13
2022-08-09T00:13:17.114Z,58.15
2022-08-09T00:15:59.251Z,57.99
2022-08-09T00:18:30.427Z,58.70
2022-08-09T00:21:00.542Z,58.97
2022-08-09T00:23:55.531Z,58.57
2022-08-09T00:26:15.853Z,58.24
2022-08-09T00:28:52.625Z,58.74
2022-08-09T00:31:57.682Z,59.18
2022-08-09T00:34:09.307Z,59.07
2022-08-09T00:36:41.763Z,58.16
2022-08-09T00:39:16.992Z,58.18
2022-08-09T00:44:10.645Z,59.38
2022-08-09T00:44:47.041Z,59.42
2022-08-09T00:47:15.596Z,58.55
2022-08-09T00:49:52.564Z,58.92
2022-08-09T00:52:30.212Z,58.86
2022-08-09T00:55:00.240Z,58.59
2022-08-09T00:57:34.887Z,58.63
2022-08-09T01:00:21.880Z,59.24
2022-08-09T01:02:52.046Z,59.00
2022-08-09T01:05:53.500Z,59.38
2022-08-09T01:08:16.701Z,59.20
2022-08-09T01:10:58.547Z,59.00
2022-08-09T01:13:53.292Z,59.26
2022-08-09T01:16:23.030Z,58.85
2022-08-09T01:19:02.062Z,59.04
2022-08-09T01:21:45.116Z,59.17
2022-08-09T01:24:27.405Z,59.80
2022-08-09T01:27:00.889Z,60.06
2022-08-09T01:29:55.068Z,59.78
2022-08-09T01:32:33.555Z,60.42
2022-08-09T01:35:06.997Z,60.48
2022-08-09T01:38:08.442Z,59.71
2022-08-09T01:40:36.617Z,59.93
2022-08-09T01:43:06.712Z,59.83
2022-08-09T01:45:35.560Z,60.47
2022-08-09T01:48:15.608Z,60.65
2022-08-09T01:50:43.964Z,61.42
2022-08-09T01:53:19.575Z,61.71
2022-08-09T01:55:48.670Z,61.95
2022-08-09T01:58:18.451Z,61.51
2022-08-09T02:00:52.969Z,61.99
2022-08-09T02:03:21.675Z,61.96
2022-08-09T02:06:03.187Z,62.16
2022-08-09T02:08:57.228Z,62.59
2022-08-09T02:11:24.928Z,62.35
2022-08-09T02:14:14.944Z,62.56
2022-08-09T02:16:59.792Z,62.76
2022-08-09T02:19:38.777Z,62.76
2022-08-09T02:22:14.369Z,62.71
2022-08-09T02:24:42.709Z,63.06
2022-08-09T02:27:18.600Z,63.01
2022-08-09T02:29:50.455Z,62.52
2022-08-09T02:32:20.906Z,62.55
2022-08-09T02:34:55.876Z,61.69
2022-08-09T02:37:31.669Z,62.03
2022-08-09T02:40:03.270Z,62.49
2022-08-09T02:42:32.930Z,62.60
2022-08-09T02:45:06.667Z,62.73
2022-08-09T02:47:58.010Z,63.63
2022-08-09T02:50:25.236Z,63.50
2022-08-09T02:52:56.373Z,63.30
2022-08-09T02:55:46.346Z,63.65
2022-08-09T02:58:35.987Z,64.19
2022-08-09T03:01:06.229Z,64.03
2022-08-09T03:04:13.121Z,63.66
2022-08-09T03:06:25.173Z,64.02
2022-08-09T03:08:56.422Z,63.46
2022-08-09T03:12:04.859Z,63.64
2022-08-09T03:14:12.986Z,64.40
2022-08-09T03:16:47.381Z,64.44
2022-08-09T03:19:58.471Z,64.24
2022-08-09T03:22:05.588Z,64.52
2022-08-09T03:24:51.737Z,64.81
2022-08-09T03:27:21.584Z,65.09
2022-08-09T03:29:57.846Z,65.05
2022-08-09T03:32:37.158Z,65.47
2022-08-09T03:35:24.407Z,64.99
2022-08-09T03:37:54.803Z,64.71
2022-08-09T03:40:24.920Z,64.99
2022-08-09T03:42:52.616Z,65.27
2022-08-09T03:46:13.585Z,65.49
2022-08-09T03:48:19.035Z,64.45
2022-08-09T03:50:58.607Z,64.54
2022-08-09T03:53:32.174Z,65.03
2022-08-09T03:56:00.153Z,64.97
2022-08-09T03:58:27.994Z,64.68
2022-08-09T04:00:55.875Z,64.59
2022-08-09T04:03:46.041Z,64.75
2022-08-09T04:06:12.854Z,64.30
2022-08-09T04:08:42.065Z,64.09
2022-08-09T04:11:14.535Z,64.49
2022-08-09T04:13:44.993Z,64.77
2022-08-09T04:16:29.887Z,64.39
2022-08-09T04:18:58.925Z,64.85
2022-08-09T04:21:26.637Z,64.30
2022-08-09T04:23:57.758Z,64.62
2022-08-09T04:26:37.790Z,64.66
2022-08-09T04:29:10.875Z,64.78
2022-08-09T04:31:47.412Z,65.09
2022-08-09T04:34:18.815Z,65.26
2022-08-09T04:36:58.073Z,66.04
2022-08-09T04:39:25.755Z,65.45
2022-08-09T04:41:59.814Z,65.18
2022-08-09T04:44:30.398Z,64.90
2022-08-09T04:47:04.505Z,65.26
2022-08-09T04:49:52.979Z,65.48
2022-08-09T04:52:26.930Z,65.14
2022-08-09T04:55:01.001Z,64.82
2022-08-09T04:57:54.470Z,64.89
2022-08-09T05:00:17.933Z,64.50
2022-08-09T05:02:51.815Z,64.47
2022-08-09T05:05:32.096Z,65.09
2022-08-09T05:08:10.179Z,65.09
2022-08-09T05:10:42.401Z,64.86
2022-08-09T05:13:10.906Z,66.04
2022-08-09T05:15:42.924Z,64.93
2022-08-09T05:18:42.563Z,65.36
2022-08-09T05:21:14.259Z,65.29
2022-08-09T05:24:00.166Z,64.53
2022-08-09T05:26:37.048Z,64.60
2022-08-09T05:29:17.530Z,64.49
2022-08-09T05:31:57.255Z,64.91
2022-08-09T05:34:31.340Z,65.15
2022-08-09T05:37:06.273Z,65.07
2022-08-09T05:39:35.808Z,64.95
2022-08-09T05:42:07.485Z,64.69
2022-08-09T05:44:36.551Z,64.73
2022-08-09T05:47:05.980Z,65.44
2022-08-09T05:50:15.599Z,64.32
2022-08-09T05:52:30.757Z,63.85
2022-08-09T05:55:03.249Z,63.46
2022-08-09T05:57:56.191Z,63.58
2022-08-09T06:00:23.179Z,63.18
2022-08-09T06:02:54.375Z,63.21
2022-08-09T06:05:30.625Z,63.42
2022-08-09T06:08:13.500Z,62.81
2022-08-09T06:10:46.924Z,63.15
2022-08-09T06:13:18.595Z,63.64
2022-08-09T06:15:51.443Z,62.48
2022-08-09T06:18:20.404Z,62.18
2022-08-09T06:20:54.943Z,62.72
2022-08-09T06:23:55.076Z,62.73
2022-08-09T06:26:20.560Z,62.12
2022-08-09T06:28:49.409Z,63.26
2022-08-09T06:31:17.080Z,63.09
2022-08-09T06:33:59.264Z,61.54
2022-08-09T06:36:29.809Z,61.19
2022-08-09T06:38:59.631Z,60.36
2022-08-09T06:42:07.957Z,60.15
2022-08-09T06:44:19.242Z,59.92
2022-08-09T06:46:54.950Z,59.32
2022-08-09T06:49:44.799Z,59.45
2022-08-09T06:52:11.997Z,59.34
2022-08-09T06:54:41.984Z,59.39
2022-08-09T06:57:11.889Z,61.15
2022-08-09T07:00:50.758Z,59.02
2022-08-09T07:02:29.403Z,59.53
2022-08-09T07:04:59.850Z,58.31
2022-08-09T07:07:59.510Z,58.41
2022-08-09T07:10:24.019Z,58.46
2022-08-09T07:12:58.363Z,58.67
2022-08-09T07:16:39.285Z,58.69
2022-08-09T07:18:15.046Z,58.11
2022-08-09T07:20:43.372Z,57.62
2022-08-09T07:23:18.973Z,57.26
2022-08-09T07:27:53.217Z,56.52
2022-08-09T07:30:25.272Z,55.87
2022-08-09T07:32:54.838Z,55.94
2022-08-09T07:35:23.161Z,55.43
2022-08-09T07:37:54.051Z,54.95
2022-08-09T07:40:37.354Z,53.92
2022-08-09T07:43:17.461Z,54.12
2022-08-09T07:45:45.707Z,54.42
2022-08-09T07:48:25.439Z,57.32
2022-08-09T07:52:04.861Z,52.30
2022-08-09T07:54:08.826Z,52.29
2022-08-09T07:56:38.735Z,51.85
2022-08-09T07:59:15.890Z,51.04
2022-08-09T08:01:55.704Z,50.94
2022-08-09T08:04:31.913Z,50.67
2022-08-09T08:07:09.546Z,50.72
2022-08-09T08:10:05.661Z,49.80
2022-08-09T08:12:43.703Z,49.76
2022-08-09T08:15:18.015Z,48.84
2022-08-09T08:17:57.968Z,49.33
2022-08-09T08:20:30.606Z,48.24
2022-08-09T08:23:03.651Z,47.36
2022-08-09T08:25:40.010Z,47.42
2022-08-09T08:28:14.265Z,46.70
2022-08-09T08:30:45.385Z,47.40
2022-08-09T08:33:22.847Z,46.51
2022-08-09T08:35:58.142Z,46.64
2022-08-09T08:38:28.667Z,46.31
2022-08-09T08:40:58.327Z,45.62
2022-08-09T08:43:27.796Z,46.21
2022-08-09T08:46:33.006Z,46.52
2022-08-09T08:48:54.195Z,44.89
2022-08-09T08:51:23.166Z,45.32
2022-08-09T08:54:03.530Z,45.87
2022-08-09T08:56:35.490Z,45.77
2022-08-09T08:59:07.703Z,44.62
2022-08-09T09:01:53.401Z,44.77
2022-08-09T09:04:31.930Z,46.52
2022-08-09T09:07:11.059Z,44.83
2022-08-09T09:10:01.542Z,43.95
2022-08-09T09:12:35.419Z,44.16
2022-08-09T09:15:06.719Z,46.99
2022-08-09T09:17:49.182Z,46.11
2022-08-09T09:20:21.968Z,43.95
2022-08-09T09:22:55.517Z,43.96
2022-08-09T09:26:01.536Z,45.37
2022-08-09T09:29:03.073Z,44.29
2022-08-09T09:31:17.217Z,42.77
2022-08-09T09:34:17.961Z,41.95
2022-08-09T09:36:52.834Z,40.32
2022-08-09T09:39:23.257Z,40.34
2022-08-09T09:41:52.165Z,40.59
2022-08-09T09:44:31.617Z,40.15
2022-08-09T09:47:07.824Z,40.43
2022-08-09T09:49:56.247Z,40.12
2022-08-09T09:52:52.485Z,39.98
2022-08-09T09:55:28.385Z,39.20
2022-08-09T09:58:15.847Z,39.52
2022-08-09T10:00:52.476Z,39.52
2022-08-09T10:03:40.804Z,39.41
2022-08-09T10:06:12.749Z,39.29
2022-08-09T10:08:54.396Z,39.06
2022-08-09T10:12:12.080Z,39.17
2022-08-09T10:14:30.362Z,39.27
2022-08-09T10:17:39.579Z,41.47
2022-08-09T10:19:58.158Z,38.33
2022-08-09T10:22:34.286Z,38.24
2022-08-09T10:25:10.752Z,38.28
2022-08-09T10:27:57.358Z,37.91
2022-08-09T10:32:13.639Z,38.43
2022-08-09T10:34:04.558Z,37.55
2022-08-09T10:36:04.853Z,36.60
2022-08-09T10:38:55.869Z,36.07
2022-08-09T10:41:22.021Z,36.55
2022-08-09T10:44:01.265Z,35.81
2022-08-09T10:47:20.605Z,35.60
2022-08-09T10:50:04.586Z,36.17
2022-08-09T10:52:49.960Z,35.63
2022-08-09T10:55:25.098Z,36.03
2022-08-09T10:57:56.105Z,37.65
2022-08-09T11:00:57.000Z,35.30
2022-08-09T11:03:51.425Z,35.50
2022-08-09T11:06:22.995Z,35.35
2022-08-09T11:08:53.363Z,34.95
2022-08-09T11:11:24.033Z,34.49
2022-08-09T11:14:28.157Z,33.41
2022-08-09T11:16:57.362Z,33.81
2022-08-09T11:20:17.959Z,32.10
2022-08-09T11:23:02.905Z,31.87
2022-08-09T11:25:46.158Z,33.22
2022-08-09T11:28:56.687Z,30.95
2022-08-09T11:31:49.333Z,28.98
2022-08-09T11:34:28.376Z,26.86
2022-08-09T11:36:58.802Z,27.05
2022-08-09T11:39:33.477Z,27.39
2022-08-09T11:42:09.414Z,27.82
2022-08-09T11:44:48.310Z,28.83
2022-08-09T11:47:16.282Z,29.06
2022-08-09T11:50:55.202Z,29.53
2022-08-09T11:54:00.602Z,33.46
2022-08-09T11:56:41.945Z,34.50
2022-08-09T11:59:12.153Z,33.87
2022-08-09T12:02:16.397Z,33.81
2022-08-09T12:04:32.426Z,34.99
2022-08-09T12:07:08.180Z,35.08
2022-08-09T12:09:37.049Z,34.43
2022-08-09T12:12:13.120Z,34.75
2022-08-09T12:15:03.959Z,34.92
2022-08-09T12:17:44.787Z,33.34
2022-08-09T12:20:16.289Z,30.16
2022-08-09T12:22:50.357Z,28.98
2022-08-09T12:25:37.614Z,28.48
2022-08-09T12:29:12.149Z,30.34
2022-08-09T12:30:59.331Z,32.36
2022-08-09T12:33:51.495Z,33.54
2022-08-09T12:36:31.421Z,33.61
2022-08-09T12:39:01.437Z,34.52
2022-08-09T12:41:38.157Z,34.55
2022-08-09T12:44:10.325Z,35.00
2022-08-09T12:46:49.262Z,37.05
2022-08-09T12:49:21.337Z,35.63
2022-08-09T12:52:02.223Z,35.34
2022-08-09T12:56:10.641Z,34.89
2022-08-09T12:57:39.372Z,33.75
2022-08-09T13:00:19.003Z,31.45
2022-08-09T13:02:55.551Z,28.93
2022-08-09T13:05:35.460Z,29.66
2022-08-09T13:08:21.319Z,26.76
2022-08-09T13:11:13.413Z,29.59
2022-08-09T13:14:38.011Z,28.42
2022-08-09T13:16:48.346Z,27.34
2022-08-09T13:20:08.665Z,28.82
2022-08-09T13:22:37.483Z,26.74
2022-08-09T13:25:12.213Z,28.44
2022-08-09T13:27:48.697Z,28.23
2022-08-09T13:30:49.269Z,27.18
2022-08-09T13:33:24.341Z,29.20
2022-08-09T13:36:24.502Z,30.33
2022-08-09T13:38:54.894Z,31.44
2022-08-09T13:41:58.992Z,31.35
2022-08-09T13:44:17.102Z,31.69
2022-08-09T13:47:27.326Z,31.66
2022-08-09T13:49:37.834Z,31.09
2022-08-09T13:52:09.143Z,31.42
2022-08-09T13:54:43.016Z,31.43
2022-08-09T13:57:37.315Z,31.37
2022-08-09T14:00:12.428Z,31.08
2022-08-09T14:03:03.911Z,30.91
2022-08-09T14:05:58.390Z,31.82
2022-08-09T14:08:18.784Z,32.50
2022-08-09T14:10:50.635Z,32.48
2022-08-09T14:14:14.696Z,32.19
2022-08-09T14:16:14.041Z,32.03
2022-08-09T14:18:45.975Z,31.44
2022-08-09T14:21:20.223Z,32.49
2022-08-09T14:23:55.087Z,32.35
2022-08-09T14:26:32.090Z,30.93
2022-08-09T14:29:03.717Z,30.97
2022-08-09T14:31:52.160Z,30.82
2022-08-09T14:34:31.609Z,30.33
2022-08-09T14:37:07.421Z,31.25
2022-08-09T14:39:40.129Z,31.23
2022-08-09T14:42:12.752Z,31.73
2022-08-09T14:44:48.369Z,31.25
2022-08-09T14:47:41.387Z,30.82
2022-08-09T14:50:06.552Z,31.69
2022-08-09T14:52:35.138Z,31.71
2022-08-09T14:55:03.842Z,32.09
2022-08-09T14:57:43.017Z,32.36
2022-08-09T15:00:12.622Z,32.07
2022-08-09T15:02:40.594Z,31.97
2022-08-09T15:05:10.470Z,32.38
2022-08-09T15:07:38.501Z,32.89
2022-08-09T15:10:14.217Z,32.20
2022-08-09T15:12:45.327Z,31.69
2022-08-09T15:15:15.747Z,32.22
2022-08-09T15:17:47.323Z,32.49
2022-08-09T15:21:54.683Z,32.58
2022-08-09T15:24:01.338Z,32.13
2022-08-09T15:25:58.270Z,31.70
2022-08-09T15:28:33.395Z,32.47
2022-08-09T15:31:08.758Z,32.75
2022-08-09T15:34:27.381Z,31.75
2022-08-09T15:36:29.146Z,32.50
2022-08-09T15:38:58.705Z,32.54
2022-08-09T15:41:31.196Z,32.43
2022-08-09T15:44:02.333Z,32.88
2022-08-09T15:46:34.540Z,32.51
2022-08-09T15:49:20.584Z,32.33
2022-08-09T15:52:05.032Z,35.51
2022-08-09T15:54:46.255Z,35.75
2022-08-09T15:57:18.788Z,32.74
2022-08-09T15:59:51.430Z,32.87
2022-08-09T16:02:19.843Z,33.83
2022-08-09T16:04:55.390Z,34.26
2022-08-09T16:07:23.771Z,34.52
2022-08-09T16:10:04.188Z,34.20
2022-08-09T16:12:33.503Z,34.82
2022-08-09T16:15:05.836Z,34.64
2022-08-09T16:17:54.260Z,35.00
2022-08-09T16:20:27.724Z,35.09
2022-08-09T16:22:58.349Z,35.12
2022-08-09T16:25:39.534Z,35.05
2022-08-09T16:28:08.084Z,35.11
2022-08-09T16:30:44.586Z,34.58
2022-08-09T16:33:23.241Z,34.87
2022-08-09T16:35:56.352Z,34.83
2022-08-09T16:38:26.528Z,35.21
2022-08-09T16:40:55.499Z,34.84
2022-08-09T16:43:24.338Z,34.21
2022-08-09T16:45:56.689Z,34.68
2022-08-09T16:48:40.829Z,34.01
2022-08-09T16:51:13.824Z,34.53
2022-08-09T16:54:02.556Z,34.52
2022-08-09T16:56:31.416Z,34.65
2022-08-09T16:58:59.535Z,35.10
2022-08-09T17:01:33.917Z,35.03
2022-08-09T17:04:03.608Z,35.14
2022-08-09T17:07:09.283Z,35.14
2022-08-09T17:09:45.563Z,35.04
2022-08-09T17:12:09.668Z,35.06
2022-08-09T17:14:37.580Z,35.08
2022-08-09T17:17:26.012Z,35.90
2022-08-09T17:20:29.847Z,36.58
2022-08-09T17:22:50.398Z,36.94
2022-08-09T17:25:23.479Z,37.24
2022-08-09T17:27:54.591Z,37.15
2022-08-09T17:30:26.127Z,37.34
2022-08-09T17:33:00.678Z,37.59
2022-08-09T17:35:35.867Z,37.88
2022-08-09T17:38:12.452Z,37.28
2022-08-09T17:40:52.442Z,37.67
2022-08-09T17:43:33.654Z,37.54
2022-08-09T17:46:06.918Z,37.31
2022-08-09T17:48:39.904Z,37.92
2022-08-09T17:51:18.568Z,38.02
2022-08-09T17:53:52.822Z,38.28
2022-08-09T17:56:27.568Z,37.95
2022-08-09T17:58:58.696Z,39.45
2022-08-09T18:01:40.737Z,38.38
2022-08-09T18:04:17.772Z,39.00
2022-08-09T18:06:49.772Z,39.40
2022-08-09T18:09:22.640Z,38.52
2022-08-09T18:12:15.443Z,39.50
2022-08-09T18:14:53.681Z,39.83
2022-08-09T18:17:27.633Z,39.79
2022-08-09T18:21:00.836Z,39.98
2022-08-09T18:23:05.488Z,40.82
2022-08-09T18:25:53.401Z,40.96
2022-08-09T18:30:35.614Z,41.10
2022-08-09T18:31:11.622Z,41.33
2022-08-09T18:33:40.191Z,42.14
2022-08-09T18:36:14.270Z,42.45
2022-08-09T18:39:02.216Z,43.00
2022-08-09T18:41:35.024Z,43.02
2022-08-09T18:44:10.705Z,43.13
2022-08-09T18:46:46.545Z,44.26
2022-08-09T18:49:32.258Z,43.61
2022-08-09T18:52:13.524Z,43.92
2022-08-09T18:54:49.834Z,44.05
2022-08-09T18:57:23.043Z,44.34
2022-08-09T18:59:55.640Z,44.53
2022-08-09T19:02:30.715Z,45.47
2022-08-09T19:05:14.614Z,44.85
2022-08-09T19:08:03.902Z,45.31
2022-08-09T19:10:39.321Z,46.71
2022-08-09T19:13:22.559Z,45.33
2022-08-09T19:15:59.358Z,45.58
2022-08-09T19:18:35.129Z,46.05
2022-08-09T19:21:09.516Z,46.34
2022-08-09T19:24:33.078Z,45.90
2022-08-09T19:26:32.215Z,46.17
2022-08-09T19:29:03.277Z,46.63
2022-08-09T19:31:45.468Z,46.79
2022-08-09T19:34:21.607Z,47.19
2022-08-09T19:36:51.327Z,46.90
2022-08-09T19:39:43.760Z,47.58
2022-08-09T19:42:09.570Z,47.97
2022-08-09T19:44:43.510Z,48.01
2022-08-09T19:47:11.439Z,48.25
2022-08-09T19:50:07.499Z,48.57
2022-08-09T19:52:27.979Z,49.16
2022-08-09T19:54:58.977Z,48.96
2022-08-09T19:57:26.985Z,49.54
2022-08-09T20:00:05.882Z,49.93
2022-08-09T20:04:26.120Z,50.27
2022-08-09T20:05:26.901Z,50.03
2022-08-09T20:07:59.671Z,50.60
2022-08-09T20:10:34.851Z,50.61
2022-08-09T20:13:08.342Z,50.79
2022-08-09T20:16:35.697Z,50.85
2022-08-09T20:18:28.030Z,51.47
2022-08-09T20:20:57.347Z,51.95
2022-08-09T20:23:39.898Z,51.98
2022-08-09T20:26:13.286Z,52.16
2022-08-09T20:28:48.651Z,52.34
2022-08-09T20:31:18.548Z,52.84
2022-08-09T20:33:52.426Z,52.77
2022-08-09T20:36:27.195Z,52.99
2022-08-09T20:39:28.318Z,52.50
2022-08-09T20:41:46.496Z,52.81
2022-08-09T20:44:16.926Z,53.47
2022-08-09T20:46:55.333Z,53.71
2022-08-09T20:49:27.415Z,54.00
2022-08-09T20:51:56.633Z,54.15
2022-08-09T20:54:25.542Z,54.86
2022-08-09T20:56:58.234Z,54.57
2022-08-09T21:00:19.347Z,54.91
2022-08-09T21:02:18.596Z,55.25
2022-08-09T21:05:53.708Z,55.42
2022-08-09T21:07:40.404Z,55.58
2022-08-09T21:10:09.185Z,55.68
2022-08-09T21:12:40.255Z,56.04
2022-08-09T21:15:12.609Z,56.99
2022-08-09T21:18:21.862Z,56.88
2022-08-09T21:20:30.229Z,56.49
2022-08-09T21:22:58.637Z,57.34
2022-08-09T21:25:56.311Z,56.54
2022-08-09T21:28:35.153Z,57.41
2022-08-09T21:31:16.736Z,57.56
2022-08-09T21:33:51.019Z,58.07
2022-08-09T21:36:23.443Z,59.03
2022-08-09T21:38:57.287Z,58.46
2022-08-09T21:42:04.588Z,58.24
2022-08-09T21:44:33.444Z,58.67
2022-08-09T21:47:03.897Z,59.25
2022-08-09T21:49:40.586Z,59.38
2022-08-09T21:52:15.116Z,60.07
2022-08-09T21:54:49.460Z,59.66
2022-08-09T21:57:37.154Z,59.74
2022-08-09T22:00:12.659Z,60.28
2022-08-09T22:02:43.622Z,61.62
2022-08-09T22:05:23.610Z,61.95
2022-08-09T22:08:04.519Z,61.42
2022-08-09T22:10:33.246Z,61.52
2022-08-09T22:13:07.570Z,61.91
2022-08-09T22:15:40.876Z,62.22
2022-08-09T22:18:12.304Z,61.96
2022-08-09T22:20:40.762Z,62.28
2022-08-09T22:23:10.630Z,61.88
2022-08-09T22:26:07.453Z,63.41
2022-08-09T22:28:32.958Z,62.94
2022-08-09T22:31:02.902Z,63.96
2022-08-09T22:33:42.686Z,63.91
2022-08-09T22:36:19.456Z,64.34
2022-08-09T22:38:48.715Z,64.36
2022-08-09T22:41:16.747Z,64.71
2022-08-09T22:44:02.697Z,64.67
2022-08-09T22:48:15.362Z,65.19
2022-08-09T22:49:21.925Z,65.48
2022-08-09T22:51:57.263Z,66.15
2022-08-09T22:54:27.223Z,66.98
2022-08-09T22:56:57.098Z,66.46
2022-08-09T22:59:55.796Z,66.78
2022-08-09T23:02:20.141Z,66.91
2022-08-09T23:04:53.668Z,66.82
2022-08-09T23:08:22.528Z,67.80
2022-08-09T23:10:30.146Z,68.11
2022-08-09T23:12:58.183Z,68.70
2022-08-09T23:15:26.529Z,69.40
2022-08-09T23:17:55.895Z,69.97
2022-08-09T23:20:26.022Z,69.62
2022-08-09T23:22:54.136Z,69.64
2022-08-09T23:25:22.101Z,70.29
2022-08-09T23:28:12.525Z,70.43
2022-08-09T23:30:37.904Z,71.17
2022-08-09T23:33:07.188Z,70.69
2022-08-09T23:36:04.732Z,70.87
2022-08-09T23:38:23.062Z,71.20
2022-08-09T23:40:51.752Z,70.11
2022-08-09T23:43:19.900Z,70.00
2022-08-09T23:45:48.041Z,71.10
2022-08-09T23:48:18.115Z,72.31
2022-08-09T23:50:46.346Z,72.15
2022-08-09T23:53:15.154Z,73.45
2022-08-09T23:55:49.328Z,74.22
2022-08-09T23:58:25.817Z,74.31
